Time;durP1;ratioP1;P1;durP2;ratioP2;P2;SDS_P1;SDS_P2;PMS_P1;PMS_P2;Temp;Humidity;BMP_temperature;BMP_pressure;BME280_temperature;BME280_humidity;BME280_pressure;Samples;Min_cycle;Max_cycle;Signal;HPM_P1;HPM_P2
2022/08/11 00:01:05;;;;;;;;;;;28.30;43.70;;;;;;5088461;28;19977;-62
2022/08/11 00:03:31;;;;;;;;;;;28.30;43.70;;;;;;5091804;28;19915;-62
2022/08/11 00:05:56;;;;;;;;;;;28.30;43.60;;;;;;5111004;28;20390;-62
2022/08/11 00:08:22;;;;;;;;;;;28.30;43.40;;;;;;5091745;28;20394;-62
2022/08/11 00:10:52;;;;;;;;;;;28.30;43.50;;;;;;5094404;28;19912;-62
2022/08/11 00:13:18;;;;;;;;;;;28.30;43.50;;;;;;5092140;28;20420;-62
2022/08/11 00:15:44;;;;;;;;;;;28.40;43.70;;;;;;5110111;28;19928;-62
2022/08/11 00:18:09;;;;;;;;;;;28.40;43.60;;;;;;5108016;28;19931;-62
2022/08/11 00:20:35;;;;;;;;;;;28.40;43.60;;;;;;5086894;28;19908;-62
2022/08/11 00:23:05;;;;;;;;;;;28.30;43.50;;;;;;5093432;28;19911;-62
2022/08/11 00:25:31;;;;;;;;;;;28.30;43.50;;;;;;5093612;28;19943;-62
2022/08/11 00:27:56;;;;;;;;;;;28.30;43.50;;;;;;5091036;28;19947;-62
2022/08/11 00:30:22;;;;;;;;;;;28.30;43.50;;;;;;5111355;27;19957;-62
2022/08/11 00:32:54;;;;;;;;;;;28.30;43.40;;;;;;5110385;28;19918;-62
2022/08/11 00:35:22;;;;;;;;;;;28.30;43.40;;;;;;5086669;28;19919;-62
2022/08/11 00:37:48;;;;;;;;;;;28.40;43.50;;;;;;5093124;28;19919;-62
2022/08/11 00:40:15;;;;;;;;;;;28.30;43.50;;;;;;5075426;28;20379;-62
2022/08/11 00:42:53;;;;;;;;;;;28.30;43.50;;;;;;5093738;28;20406;-62
2022/08/11 00:45:36;;;;;;;;;;;28.30;43.50;;;;;;5091100;28;19923;-62
2022/08/11 00:48:21;;;;;;;;;;;28.30;43.50;;;;;;5093734;28;19916;-62
2022/08/11 00:50:50;;;;;;;;;;;28.30;43.50;;;;;;5086355;28;19915;-62
2022/08/11 00:53:16;;;;;;;;;;;28.30;43.50;;;;;;5091659;28;20372;-62
2022/08/11 00:55:47;;;;;;;;;;;28.30;43.50;;;;;;5104967;28;19916;-62
2022/08/11 00:58:27;;;;;;;;;;;28.30;43.60;;;;;;5110561;28;20325;-62
2022/08/11 01:01:19;;;;;;;;;;;28.30;43.60;;;;;;5106180;28;19918;-62
2022/08/11 01:03:57;;;;;;;;;;;28.30;43.50;;;;;;5105033;28;20014;-62
2022/08/11 01:06:29;;;;;;;;;;;28.30;43.50;;;;;;5116083;28;19915;-62
2022/08/11 01:09:07;;;;;;;;;;;28.30;43.60;;;;;;5107291;28;19926;-62
2022/08/11 01:11:41;;;;;;;;;;;28.30;43.60;;;;;;5088029;28;19908;-62
2022/08/11 01:14:07;;;;;;;;;;;28.30;43.70;;;;;;5110471;28;20390;-62
2022/08/11 01:16:32;;;;;;;;;;;28.30;43.60;;;;;;5114087;28;19912;-62
2022/08/11 01:19:01;;;;;;;;;;;28.20;43.60;;;;;;5114953;28;20002;-62
2022/08/11 01:21:45;;;;;;;;;;;28.20;43.60;;;;;;5113670;28;19920;-62
2022/08/11 01:24:29;;;;;;;;;;;28.20;43.50;;;;;;5111235;28;19916;-62
2022/08/11 01:27:13;;;;;;;;;;;28.20;43.70;;;;;;5109351;28;19926;-62
2022/08/11 01:29:48;;;;;;;;;;;28.20;43.70;;;;;;5113680;28;20326;-62
2022/08/11 01:32:28;;;;;;;;;;;28.20;43.70;;;;;;5090599;28;19973;-62
2022/08/11 01:35:05;;;;;;;;;;;28.20;43.60;;;;;;5094903;28;19916;-62
2022/08/11 01:37:40;;;;;;;;;;;28.20;43.70;;;;;;5092981;28;19919;-62
2022/08/11 01:40:12;;;;;;;;;;;28.20;43.80;;;;;;5110285;28;19911;-62
2022/08/11 01:45:40;;;;;;;;;;;28.10;43.70;;;;;;5086934;28;19923;-62
2022/08/11 01:48:07;;;;;;;;;;;28.10;43.70;;;;;;5110169;28;20345;-62
2022/08/11 01:50:48;;;;;;;;;;;28.10;43.70;;;;;;5092826;28;19955;-63
2022/08/11 01:53:17;;;;;;;;;;;28.10;43.70;;;;;;5091004;28;20295;-62
2022/08/11 01:55:46;;;;;;;;;;;28.10;43.70;;;;;;5106977;28;19915;-62
2022/08/11 01:58:18;;;;;;;;;;;28.10;43.70;;;;;;5097892;28;19912;-62
2022/08/11 02:01:00;;;;;;;;;;;28.10;43.70;;;;;;5114728;28;19911;-62
2022/08/11 02:03:38;;;;;;;;;;;28.10;43.60;;;;;;5100624;28;19988;-62
2022/08/11 02:06:53;;;;;;;;;;;28.10;43.80;;;;;;5110016;28;19919;-62
2022/08/11 02:09:02;;;;;;;;;;;28.10;43.80;;;;;;5097261;28;19916;-62
2022/08/11 02:11:32;;;;;;;;;;;28.00;43.60;;;;;;5095003;28;19911;-62
2022/08/11 02:14:21;;;;;;;;;;;28.10;43.80;;;;;;5109957;28;19916;-62
2022/08/11 02:17:05;;;;;;;;;;;28.00;43.90;;;;;;5101200;28;19927;-62
2022/08/11 02:25:28;;;;;;;;;;;28.00;43.90;;;;;;5110514;28;19941;-62
2022/08/11 02:28:04;;;;;;;;;;;28.00;43.80;;;;;;5084611;28;20425;-62
2022/08/11 02:30:31;;;;;;;;;;;28.00;43.90;;;;;;5090150;28;19911;-64
2022/08/11 02:36:07;;;;;;;;;;;28.00;43.90;;;;;;5117591;28;19926;-62
2022/08/11 02:38:50;;;;;;;;;;;28.00;44.00;;;;;;5108271;28;19916;-62
2022/08/11 02:44:12;;;;;;;;;;;28.00;44.00;;;;;;5119541;28;20275;-62
2022/08/11 02:46:47;;;;;;;;;;;28.00;44.10;;;;;;5094787;28;20441;-62
2022/08/11 02:52:21;;;;;;;;;;;28.00;44.10;;;;;;5096582;28;19958;-64
2022/08/11 02:54:52;;;;;;;;;;;27.90;44.10;;;;;;5112141;28;19919;-62
2022/08/11 02:57:21;;;;;;;;;;;27.90;44.20;;;;;;5094602;28;19922;-62
2022/08/11 02:59:54;;;;;;;;;;;27.90;44.20;;;;;;5113814;28;19911;-62
2022/08/11 03:02:31;;;;;;;;;;;27.90;44.30;;;;;;5093901;28;19963;-62
2022/08/11 03:04:57;;;;;;;;;;;27.90;44.30;;;;;;5111216;28;19998;-62
2022/08/11 03:07:42;;;;;;;;;;;27.90;44.20;;;;;;5106899;28;19916;-62
2022/08/11 03:10:21;;;;;;;;;;;27.90;44.30;;;;;;5111657;28;20375;-62
2022/08/11 03:18:55;;;;;;;;;;;27.80;44.40;;;;;;5098298;28;19923;-62
2022/08/11 03:21:21;;;;;;;;;;;27.80;44.50;;;;;;5100672;28;20022;-62
2022/08/11 03:24:06;;;;;;;;;;;27.80;44.30;;;;;;5104269;28;19919;-62
2022/08/11 03:26:41;;;;;;;;;;;27.80;44.40;;;;;;5107503;28;19911;-62
2022/08/11 03:29:13;;;;;;;;;;;27.80;44.40;;;;;;5093983;28;19946;-62
2022/08/11 03:31:56;;;;;;;;;;;27.80;44.40;;;;;;5112515;28;19915;-62
2022/08/11 03:34:24;;;;;;;;;;;27.70;44.40;;;;;;5110462;28;20010;-62
2022/08/11 03:36:49;;;;;;;;;;;27.70;44.60;;;;;;5095027;28;19918;-62
2022/08/11 03:39:33;;;;;;;;;;;27.70;45.30;;;;;;5109705;28;20299;-62
2022/08/11 03:42:01;;;;;;;;;;;27.70;44.50;;;;;;5105849;28;19927;-62
2022/08/11 03:44:30;;;;;;;;;;;27.70;44.60;;;;;;5092499;28;20303;-62
2022/08/11 03:47:05;;;;;;;;;;;27.60;44.60;;;;;;5110788;28;19912;-62
2022/08/11 03:49:57;;;;;;;;;;;27.70;44.60;;;;;;5090451;28;19943;-62
2022/08/11 03:52:26;;;;;;;;;;;27.70;44.70;;;;;;5099978;28;19912;-62
2022/08/11 03:55:00;;;;;;;;;;;27.70;44.50;;;;;;5111728;28;19912;-62
2022/08/11 03:57:43;;;;;;;;;;;27.70;44.40;;;;;;5089477;28;19970;-62
2022/08/11 04:00:35;;;;;;;;;;;27.70;44.60;;;;;;5092258;28;19972;-62
2022/08/11 04:03:19;;;;;;;;;;;27.60;44.40;;;;;;5078802;28;20052;-62
2022/08/11 04:06:03;;;;;;;;;;;27.70;44.60;;;;;;5105769;28;19916;-61
2022/08/11 04:08:34;;;;;;;;;;;27.60;44.50;;;;;;5103975;28;19941;-62
2022/08/11 04:11:18;;;;;;;;;;;27.60;44.50;;;;;;5093592;28;20398;-62
2022/08/11 04:17:11;;;;;;;;;;;27.60;44.70;;;;;;5092349;28;19955;-62
2022/08/11 04:19:49;;;;;;;;;;;27.60;44.70;;;;;;5096719;28;20290;-61
2022/08/11 04:22:21;;;;;;;;;;;27.60;44.80;;;;;;5091716;28;19962;-62
2022/08/11 04:24:50;;;;;;;;;;;27.50;44.70;;;;;;5089830;28;19998;-62
2022/08/11 04:27:34;;;;;;;;;;;27.50;44.70;;;;;;5112308;28;20439;-62
2022/08/11 04:30:02;;;;;;;;;;;27.60;44.80;;;;;;5085401;28;19916;-61
2022/08/11 04:32:31;;;;;;;;;;;27.50;44.80;;;;;;5108890;28;20309;-61
2022/08/11 04:35:08;;;;;;;;;;;27.50;44.90;;;;;;5109027;28;19923;-62
2022/08/11 04:37:46;;;;;;;;;;;27.40;45.00;;;;;;5108625;28;19916;-62
2022/08/11 04:40:18;;;;;;;;;;;27.50;45.10;;;;;;5102032;28;19912;-62
2022/08/11 04:45:32;;;;;;;;;;;27.40;45.20;;;;;;5105619;28;19918;-62
2022/08/11 05:02:50;;;;;;;;;;;27.30;45.40;;;;;;5115107;28;20382;-61
2022/08/11 05:05:31;;;;;;;;;;;27.30;45.60;;;;;;5069982;28;20355;-62
2022/08/11 05:07:56;;;;;;;;;;;27.30;45.50;;;;;;5090769;28;19919;-61
2022/08/11 05:10:24;;;;;;;;;;;27.30;45.60;;;;;;5108838;28;19916;-62
2022/08/11 05:12:51;;;;;;;;;;;27.30;45.50;;;;;;5107567;28;19966;-62
2022/08/11 05:34:54;;;;;;;;;;;27.10;46.20;;;;;;5094469;28;19922;-61
2022/08/11 05:37:21;;;;;;;;;;;27.10;46.20;;;;;;5089561;28;20001;-61
2022/08/11 05:56:26;;;;;;;;;;;27.20;46.00;;;;;;5097220;28;19984;-61
2022/08/11 05:58:52;;;;;;;;;;;27.20;45.90;;;;;;5078999;28;19955;-61
2022/08/11 06:01:25;;;;;;;;;;;27.20;45.80;;;;;;5108923;28;20263;-62
2022/08/11 06:06:35;;;;;;;;;;;27.10;46.10;;;;;;5114851;28;20377;-61
2022/08/11 06:09:01;;;;;;;;;;;27.10;46.20;;;;;;5086099;28;19908;-62
2022/08/11 06:11:26;;;;;;;;;;;27.10;46.30;;;;;;5070324;28;19920;-62
2022/08/11 06:13:53;;;;;;;;;;;27.10;46.20;;;;;;5109650;28;20494;-61
2022/08/11 06:16:24;;;;;;;;;;;27.20;46.10;;;;;;5111105;28;19922;-62
2022/08/11 06:18:50;;;;;;;;;;;27.20;46.10;;;;;;5112900;28;19955;-62
2022/08/11 06:21:16;;;;;;;;;;;27.20;46.10;;;;;;5113488;28;19939;-62
2022/08/11 06:23:41;;;;;;;;;;;27.20;46.20;;;;;;5095184;28;19907;-62
2022/08/11 06:26:07;;;;;;;;;;;27.20;46.10;;;;;;5093648;28;19919;-62
2022/08/11 06:28:35;;;;;;;;;;;27.20;46.10;;;;;;5108298;28;19919;-62
2022/08/11 06:31:01;;;;;;;;;;;27.20;46.30;;;;;;5095827;28;19908;-62
2022/08/11 06:33:34;;;;;;;;;;;27.20;46.30;;;;;;5083368;28;19916;-62
2022/08/11 06:36:06;;;;;;;;;;;27.20;46.20;;;;;;5113435;28;19973;-62
2022/08/11 06:38:52;;;;;;;;;;;27.20;46.10;;;;;;5092330;28;19912;-62
2022/08/11 06:41:30;;;;;;;;;;;27.10;46.10;;;;;;5083729;28;19912;-62
2022/08/11 06:43:56;;;;;;;;;;;27.10;46.20;;;;;;5110972;28;20382;-61
2022/08/11 06:46:42;;;;;;;;;;;27.10;46.20;;;;;;5105218;28;19912;-61
2022/08/11 06:51:10;;;;;;;;;;;27.10;46.30;;;;;;5109596;28;19972;-61
2022/08/11 06:52:00;;;;;;;;;;;27.10;46.30;;;;;;5108319;27;20329;-61
2022/08/11 06:54:26;;;;;;;;;;;27.00;46.80;;;;;;5110569;28;19922;-62
2022/08/11 07:02:27;;;;;;;;;;;27.00;46.80;;;;;;5109987;28;19969;-62
2022/08/11 07:04:52;;;;;;;;;;;27.10;46.70;;;;;;5093496;28;20260;-62
2022/08/11 07:15:53;;;;;;;;;;;27.00;46.80;;;;;;5089985;28;19923;-61
2022/08/11 07:29:20;;;;;;;;;;;27.10;46.70;;;;;;5072511;28;20014;-62
2022/08/11 07:31:49;;;;;;;;;;;27.10;46.50;;;;;;5069774;28;20424;-62
2022/08/11 07:34:18;;;;;;;;;;;27.20;46.40;;;;;;5069983;28;19923;-62
2022/08/11 07:36:53;;;;;;;;;;;27.10;46.40;;;;;;5089151;28;19912;-62
2022/08/11 07:39:20;;;;;;;;;;;27.20;46.40;;;;;;5070933;28;20803;-62
2022/08/11 07:41:46;;;;;;;;;;;27.10;46.50;;;;;;5053667;28;19912;-62
2022/08/11 07:44:11;;;;;;;;;;;27.10;46.60;;;;;;5089195;28;19919;-63
2022/08/11 07:54:54;;;;;;;;;;;27.00;46.70;;;;;;5085845;28;19922;-62
2022/08/11 08:19:14;;;;;;;;;;;27.00;46.90;;;;;;5071013;28;20406;-61
2022/08/11 08:21:39;;;;;;;;;;;27.10;46.90;;;;;;5057125;28;20010;-59
2022/08/11 08:24:05;;;;;;;;;;;27.10;46.70;;;;;;5071696;28;20006;-62
2022/08/11 08:31:58;;;;;;;;;;;27.40;46.00;;;;;;5073125;28;19922;-61
2022/08/11 08:34:24;;;;;;;;;;;27.40;46.00;;;;;;5071039;28;19919;-62
2022/08/11 08:36:49;;;;;;;;;;;27.40;45.80;;;;;;5089504;28;19998;-59
2022/08/11 08:39:19;;;;;;;;;;;27.40;45.70;;;;;;5069309;28;19912;-61
2022/08/11 08:41:44;;;;;;;;;;;27.50;45.70;;;;;;5068900;28;19952;-60
2022/08/11 08:44:10;;;;;;;;;;;27.50;45.50;;;;;;5070498;28;19968;-60
2022/08/11 08:46:48;;;;;;;;;;;27.60;45.30;;;;;;5087578;28;19912;-62
2022/08/11 08:49:15;;;;;;;;;;;27.50;45.20;;;;;;5067029;28;19923;-63
2022/08/11 08:51:40;;;;;;;;;;;27.60;45.20;;;;;;5069791;28;20371;-62
2022/08/11 08:54:07;;;;;;;;;;;27.60;45.20;;;;;;5067721;28;19919;-62
2022/08/11 08:56:35;;;;;;;;;;;27.60;45.20;;;;;;5089351;28;19916;-59
2022/08/11 08:59:01;;;;;;;;;;;27.60;45.20;;;;;;5088832;28;19912;-61
2022/08/11 09:01:28;;;;;;;;;;;27.70;45.00;;;;;;5090476;28;19922;-62
2022/08/11 09:03:53;;;;;;;;;;;27.70;44.80;;;;;;5086763;28;20284;-61
2022/08/11 09:06:19;;;;;;;;;;;27.80;44.90;;;;;;5089862;28;19916;-62
2022/08/11 09:08:44;;;;;;;;;;;27.80;44.90;;;;;;5069401;28;19912;-62
2022/08/11 09:13:54;;;;;;;;;;;27.90;44.70;;;;;;5083218;28;19928;-61
2022/08/11 09:16:20;;;;;;;;;;;27.90;44.70;;;;;;5066289;28;20019;-59
2022/08/11 09:18:45;;;;;;;;;;;27.90;44.50;;;;;;5085734;28;19978;-61
2022/08/11 09:21:11;;;;;;;;;;;27.90;44.50;;;;;;5090429;28;20002;-61
2022/08/11 09:29:05;;;;;;;;;;;27.90;44.40;;;;;;5094038;28;19919;-61
2022/08/11 09:31:32;;;;;;;;;;;28.00;43.80;;;;;;5090505;28;19912;-62
2022/08/11 09:33:57;;;;;;;;;;;27.90;43.40;;;;;;5094383;28;19916;-61
2022/08/11 09:41:51;;;;;;;;;;;28.00;43.60;;;;;;5088669;28;19974;-61
2022/08/11 09:47:01;;;;;;;;;;;28.10;42.80;;;;;;5093733;28;19915;-62
2022/08/11 09:49:26;;;;;;;;;;;28.10;42.80;;;;;;5094415;28;19908;-62
2022/08/11 09:51:52;;;;;;;;;;;28.10;42.30;;;;;;5076207;28;19972;-61
2022/08/11 09:54:17;;;;;;;;;;;28.10;42.20;;;;;;5091562;28;19968;-62
2022/08/11 09:59:27;;;;;;;;;;;28.20;42.20;;;;;;5088477;28;19920;-61
2022/08/11 10:02:01;;;;;;;;;;;28.20;41.50;;;;;;5093573;28;19909;-62
2022/08/11 10:04:33;;;;;;;;;;;28.10;41.40;;;;;;5092991;28;20010;-61
2022/08/11 10:07:02;;;;;;;;;;;28.20;41.90;;;;;;5077529;28;19934;-62
2022/08/11 10:09:47;;;;;;;;;;;28.20;41.50;;;;;;5091539;28;19916;-62
2022/08/11 10:12:26;;;;;;;;;;;28.30;41.50;;;;;;5089174;28;19920;-61
2022/08/11 10:17:38;;;;;;;;;;;28.30;41.20;;;;;;5121572;28;19915;-62
2022/08/11 10:20:23;;;;;;;;;;;28.20;41.30;;;;;;5098877;28;20353;-61
2022/08/11 10:28:17;;;;;;;;;;;28.30;41.20;;;;;;5098785;28;19919;-62
2022/08/11 10:36:13;;;;;;;;;;;28.40;40.70;;;;;;5111688;27;19961;-63
2022/08/11 10:38:38;;;;;;;;;;;28.40;40.20;;;;;;5108254;28;19916;-62
2022/08/11 10:43:48;;;;;;;;;;;28.50;39.40;;;;;;5113949;28;19919;-62
2022/08/11 10:48:57;;;;;;;;;;;28.50;39.90;;;;;;5094867;28;19941;-63
2022/08/11 10:59:36;;;;;;;;;;;28.60;39.90;;;;;;5098533;28;20387;-62
2022/08/11 11:02:02;;;;;;;;;;;28.70;39.90;;;;;;5092663;28;19911;-62
2022/08/11 11:04:28;;;;;;;;;;;28.70;39.40;;;;;;5109347;28;19919;-62
2022/08/11 11:06:53;;;;;;;;;;;28.70;38.80;;;;;;5074772;28;19908;-62
2022/08/11 11:09:19;;;;;;;;;;;28.70;38.40;;;;;;5111979;28;19908;-62
2022/08/11 11:17:55;;;;;;;;;;;28.80;39.50;;;;;;5084101;28;19959;-63
2022/08/11 11:20:25;;;;;;;;;;;28.80;39.60;;;;;;5072993;28;19912;-62
2022/08/11 11:22:51;;;;;;;;;;;28.90;39.30;;;;;;5092436;28;20350;-62
2022/08/11 11:25:36;;;;;;;;;;;28.90;39.10;;;;;;5083031;28;20368;-62
2022/08/11 11:28:11;;;;;;;;;;;28.90;38.70;;;;;;5092044;28;19909;-62
2022/08/11 11:30:40;;;;;;;;;;;29.00;38.70;;;;;;5069149;28;19919;-62
2022/08/11 11:33:08;;;;;;;;;;;29.00;38.60;;;;;;5057338;28;19961;-62
2022/08/11 11:35:55;;;;;;;;;;;29.00;39.00;;;;;;5068547;28;19923;-62
2022/08/11 11:38:20;;;;;;;;;;;29.00;39.20;;;;;;5064009;28;20322;-62
2022/08/11 11:41:23;;;;;;;;;;;29.00;38.90;;;;;;5091462;28;19915;-62
2022/08/11 11:43:31;;;;;;;;;;;29.00;38.50;;;;;;5076305;28;19959;-62
2022/08/11 11:45:56;;;;;;;;;;;29.00;38.50;;;;;;5092710;28;19951;-62
2022/08/11 11:48:22;;;;;;;;;;;29.00;38.40;;;;;;5073881;28;19931;-62
2022/08/11 11:50:48;;;;;;;;;;;29.10;38.40;;;;;;5088961;28;19916;-62
2022/08/11 11:53:13;;;;;;;;;;;29.10;38.10;;;;;;5086919;28;19912;-63
2022/08/11 11:55:39;;;;;;;;;;;29.10;38.40;;;;;;5072928;28;20018;-63
2022/08/11 12:03:50;;;;;;;;;;;29.20;38.00;;;;;;5016217;28;19983;-63
2022/08/11 12:06:15;;;;;;;;;;;29.20;38.20;;;;;;5074960;28;20010;-63
2022/08/11 12:08:41;;;;;;;;;;;29.20;37.50;;;;;;5090366;28;19912;-63
2022/08/11 12:13:52;;;;;;;;;;;29.20;37.80;;;;;;5093914;28;19930;-63
2022/08/11 12:16:20;;;;;;;;;;;29.30;37.70;;;;;;5093067;28;22478;-62
2022/08/11 12:18:45;;;;;;;;;;;29.30;37.50;;;;;;5112169;28;19956;-63
2022/08/11 12:21:11;;;;;;;;;;;29.30;37.50;;;;;;5094002;28;20006;-62
2022/08/11 12:29:05;;;;;;;;;;;29.40;38.20;;;;;;5096203;28;20386;-63
2022/08/11 12:31:31;;;;;;;;;;;29.40;37.90;;;;;;5088270;28;19911;-63
2022/08/11 12:34:03;;;;;;;;;;;29.30;37.90;;;;;;5093163;28;19911;-62
2022/08/11 12:36:32;;;;;;;;;;;29.40;38.00;;;;;;5072697;28;19916;-62
2022/08/11 12:38:58;;;;;;;;;;;29.40;37.70;;;;;;5089750;28;19963;-63
2022/08/11 12:46:57;;;;;;;;;;;29.40;37.70;;;;;;5083114;28;19953;-62
2022/08/11 12:52:07;;;;;;;;;;;29.40;37.90;;;;;;5111953;28;19923;-62
2022/08/11 12:54:53;;;;;;;;;;;29.40;37.70;;;;;;5106159;28;19961;-63
2022/08/11 13:05:55;;;;;;;;;;;29.50;37.50;;;;;;5052921;28;20011;-63
2022/08/11 13:08:21;;;;;;;;;;;29.50;37.10;;;;;;5052012;28;19908;-62
2022/08/11 13:13:31;;;;;;;;;;;29.40;36.60;;;;;;5099427;28;19923;-62
2022/08/11 13:15:56;;;;;;;;;;;29.40;36.50;;;;;;5092111;28;19949;-62
2022/08/11 13:18:22;;;;;;;;;;;29.50;36.20;;;;;;5097374;28;20374;-63
2022/08/11 13:20:50;;;;;;;;;;;29.40;36.30;;;;;;5116025;28;20320;-62
2022/08/11 13:23:16;;;;;;;;;;;29.50;36.40;;;;;;5096840;28;19911;-62
2022/08/11 13:25:42;;;;;;;;;;;29.60;36.70;;;;;;5114866;28;20276;-63
2022/08/11 13:28:09;;;;;;;;;;;29.60;36.60;;;;;;5110690;28;20018;-62
2022/08/11 13:33:19;;;;;;;;;;;29.60;36.20;;;;;;5099675;28;20037;-62
2022/08/11 13:35:46;;;;;;;;;;;29.60;36.00;;;;;;5115479;28;20411;-62
2022/08/11 13:38:12;;;;;;;;;;;29.70;36.20;;;;;;5075531;28;19914;-63
2022/08/11 13:40:38;;;;;;;;;;;29.70;36.20;;;;;;5074210;28;20377;-62
2022/08/11 13:43:03;;;;;;;;;;;29.70;36.50;;;;;;5092665;28;20343;-62
2022/08/11 13:45:28;;;;;;;;;;;29.70;35.90;;;;;;5112841;28;19916;-63
2022/08/11 13:47:54;;;;;;;;;;;29.70;35.90;;;;;;5094422;28;19912;-62
2022/08/11 13:50:20;;;;;;;;;;;29.70;36.10;;;;;;5115073;28;19916;-62
2022/08/11 13:52:47;;;;;;;;;;;29.80;35.40;;;;;;5115053;28;19955;-62
2022/08/11 13:55:20;;;;;;;;;;;29.80;35.60;;;;;;5096546;28;19920;-63
2022/08/11 13:57:50;;;;;;;;;;;29.80;35.80;;;;;;5103644;28;19908;-62
2022/08/11 14:00:16;;;;;;;;;;;29.80;35.80;;;;;;5075561;28;19911;-63
2022/08/11 14:02:42;;;;;;;;;;;29.80;35.80;;;;;;5096057;28;19965;-63
2022/08/11 14:05:12;;;;;;;;;;;29.80;36.00;;;;;;5091894;28;19915;-62
2022/08/11 14:07:38;;;;;;;;;;;29.80;35.40;;;;;;5108955;28;19960;-62
2022/08/11 14:10:04;;;;;;;;;;;29.80;35.60;;;;;;5095330;28;19915;-62
2022/08/11 14:15:33;;;;;;;;;;;29.80;35.60;;;;;;5097379;28;19923;-62
2022/08/11 14:18:01;;;;;;;;;;;29.90;35.60;;;;;;5112766;28;20002;-62
2022/08/11 14:22:05;;;;;;;;;;;29.90;35.70;;;;;;5114493;28;19977;-62
2022/08/11 14:23:13;;;;;;;;;;;29.90;35.60;;;;;;5098763;28;20351;-62
2022/08/11 14:26:22;;;;;;;;;;;29.90;35.60;;;;;;5095308;28;19962;-62
2022/08/11 14:28:24;;;;;;;;;;;29.80;35.40;;;;;;5113998;28;19994;-62
2022/08/11 14:30:55;;;;;;;;;;;29.90;35.70;;;;;;5096289;28;20411;-62
2022/08/11 14:33:21;;;;;;;;;;;29.90;35.80;;;;;;5075135;28;19915;-62
2022/08/11 14:35:46;;;;;;;;;;;29.90;35.90;;;;;;5079023;28;20219;-62
2022/08/11 14:38:12;;;;;;;;;;;29.90;35.70;;;;;;5113721;28;19907;-62
2022/08/11 14:48:50;;;;;;;;;;;30.00;35.80;;;;;;5109293;28;20311;-62
2022/08/11 14:51:16;;;;;;;;;;;30.00;35.60;;;;;;5094094;28;19912;-62
2022/08/11 14:53:41;;;;;;;;;;;30.00;35.80;;;;;;5112972;28;19919;-63
2022/08/11 14:58:51;;;;;;;;;;;30.00;35.90;;;;;;5098346;28;19977;-62
2022/08/11 15:04:00;;;;;;;;;;;30.10;36.30;;;;;;5097406;28;20010;-62
2022/08/11 15:06:27;;;;;;;;;;;30.00;36.30;;;;;;5086027;28;20364;-63
2022/08/11 15:08:56;;;;;;;;;;;30.10;36.40;;;;;;5090892;28;20293;-63
2022/08/11 15:14:07;;;;;;;;;;;30.00;36.20;;;;;;5097933;28;20424;-62
2022/08/11 15:19:19;;;;;;;;;;;30.10;36.30;;;;;;5097739;28;20306;-62
2022/08/11 15:24:29;;;;;;;;;;;30.10;36.50;;;;;;5090499;28;19918;-62
2022/08/11 15:37:53;;;;;;;;;;;30.00;36.80;;;;;;5110176;28;19922;-62
2022/08/11 15:45:52;;;;;;;;;;;30.00;37.00;;;;;;5111041;28;20383;-63
2022/08/11 15:48:20;;;;;;;;;;;30.00;37.20;;;;;;5087952;28;20015;-64
2022/08/11 15:50:47;;;;;;;;;;;30.00;37.10;;;;;;5089936;28;19999;-63
2022/08/11 15:53:30;;;;;;;;;;;30.00;37.30;;;;;;5108835;28;20026;-62
2022/08/11 15:55:55;;;;;;;;;;;30.10;37.40;;;;;;5088917;28;19919;-63
2022/08/11 16:06:36;;;;;;;;;;;30.00;37.30;;;;;;5084987;28;19938;-62
2022/08/11 16:09:04;;;;;;;;;;;30.00;37.60;;;;;;5108606;28;19947;-63
2022/08/11 16:11:31;;;;;;;;;;;30.00;37.50;;;;;;5092313;28;19920;-61
2022/08/11 16:16:40;;;;;;;;;;;30.00;37.80;;;;;;5085430;28;20295;-62
2022/08/11 16:19:09;;;;;;;;;;;30.00;37.90;;;;;;5088003;28;19912;-62
2022/08/11 16:21:34;;;;;;;;;;;30.00;37.60;;;;;;5059641;28;19916;-62
2022/08/11 16:24:00;;;;;;;;;;;30.00;37.70;;;;;;5073026;28;20036;-62
2022/08/11 16:26:26;;;;;;;;;;;30.00;37.70;;;;;;5089226;28;19920;-62
2022/08/11 16:28:52;;;;;;;;;;;30.00;37.70;;;;;;5071455;28;19908;-62
2022/08/11 16:31:18;;;;;;;;;;;30.00;37.60;;;;;;5091463;28;19912;-62
2022/08/11 16:33:43;;;;;;;;;;;30.10;37.60;;;;;;5055867;28;19957;-62
2022/08/11 16:38:53;;;;;;;;;;;30.00;37.70;;;;;;5070404;28;20450;-62
2022/08/11 16:46:58;;;;;;;;;;;30.00;37.60;;;;;;5072216;28;20294;-62
2022/08/11 16:47:00;;;;;;;;;;;30.00;37.70;;;;;;5040601;28;19936;-62
2022/08/11 16:49:27;;;;;;;;;;;30.00;37.60;;;;;;5091513;28;19938;-62
2022/08/11 16:51:53;;;;;;;;;;;30.00;37.80;;;;;;5068995;28;19927;-62
2022/08/11 16:54:18;;;;;;;;;;;30.00;37.70;;;;;;5072760;28;19912;-62
2022/08/11 16:56:44;;;;;;;;;;;30.00;37.80;;;;;;5072193;28;19985;-62
2022/08/11 16:59:14;;;;;;;;;;;30.00;37.90;;;;;;5091324;28;19915;-62
2022/08/11 17:01:43;;;;;;;;;;;30.00;38.00;;;;;;5073373;28;19912;-62
2022/08/11 17:13:07;;;;;;;;;;;30.00;37.90;;;;;;5072831;28;20043;-62
2022/08/11 17:13:07;;;;;;;;;;;30.00;38.00;;;;;;5075830;28;19927;-62
2022/08/11 17:18:39;;;;;;;;;;;30.00;38.10;;;;;;5091287;28;20007;-62
2022/08/11 17:21:03;;;;;;;;;;;29.90;38.00;;;;;;5091275;28;19953;-62
2022/08/11 17:23:48;;;;;;;;;;;30.00;38.00;;;;;;5088905;28;19916;-62
2022/08/11 17:26:18;;;;;;;;;;;30.00;38.10;;;;;;5089421;28;20328;-62
2022/08/11 17:28:43;;;;;;;;;;;30.00;38.00;;;;;;5084124;28;20420;-62
2022/08/11 17:36:37;;;;;;;;;;;30.00;38.20;;;;;;5074606;28;19923;-62
2022/08/11 17:39:03;;;;;;;;;;;30.00;38.20;;;;;;5072111;28;19909;-62
2022/08/11 17:49:41;;;;;;;;;;;30.00;38.10;;;;;;5094847;28;20401;-62
2022/08/11 18:00:19;;;;;;;;;;;30.00;38.20;;;;;;5088692;28;20344;-62
2022/08/11 18:05:32;;;;;;;;;;;30.00;38.30;;;;;;5092367;28;20037;-62
